sensor_id;sensor_type;location;lat;lon;timestamp;P1;durP1;ratioP1;P2;durP2;ratioP2
77423;SDS011;66494;47.172;14.678;2023-03-14T14:59:25;0.57;;;0.30;;
77423;SDS011;66494;47.172;14.678;2023-03-14T15:00:28;1.65;;;0.20;;
77423;SDS011;66494;47.172;14.678;2023-03-14T15:01:31;0.50;;;0.30;;
77423;SDS011;66494;47.172;14.678;2023-03-14T15:02:35;2.50;;;0.20;;
77423;SDS011;66494;47.172;14.678;2023-03-14T15:03:37;0.68;;;0.20;;
77423;SDS011;66494;47.172;14.678;2023-03-14T15:04:38;0.47;;;0.10;;
77423;SDS011;66494;47.172;14.678;2023-03-14T15:05:38;1.63;;;0.55;;
77423;SDS011;66494;47.172;14.678;2023-03-14T15:06:38;0.30;;;0.15;;
77423;SDS011;66494;47.172;14.678;2023-03-14T15:07:38;0.85;;;0.20;;
77423;SDS011;66494;47.172;14.678;2023-03-14T15:08:39;0.75;;;0.20;;
77423;SDS011;66494;47.172;14.678;2023-03-14T15:09:41;0.38;;;0.13;;
77423;SDS011;66494;47.172;14.678;2023-03-14T15:10:42;1.33;;;0.30;;
77423;SDS011;66494;47.172;14.678;2023-03-14T15:11:42;0.10;;;0.10;;
77423;SDS011;66494;47.172;14.678;2023-03-14T15:12:42;2.08;;;0.13;;
77423;SDS011;66494;47.172;14.678;2023-03-14T15:13:42;0.93;;;0.10;;
77423;SDS011;66494;47.172;14.678;2023-03-14T15:14:43;1.90;;;0.28;;
77423;SDS011;66494;47.172;14.678;2023-03-14T15:15:43;0.32;;;0.20;;
77423;SDS011;66494;47.172;14.678;2023-03-14T15:16:44;4.75;;;1.30;;
77423;SDS011;66494;47.172;14.678;2023-03-14T15:17:44;0.88;;;0.45;;
77423;SDS011;66494;47.172;14.678;2023-03-14T15:18:45;0.75;;;0.47;;
77423;SDS011;66494;47.172;14.678;2023-03-14T15:19:46;1.55;;;0.30;;
77423;SDS011;66494;47.172;14.678;2023-03-14T15:20:46;0.82;;;0.60;;
77423;SDS011;66494;47.172;14.678;2023-03-14T15:21:46;7.13;;;1.92;;
77423;SDS011;66494;47.172;14.678;2023-03-14T15:22:47;2.10;;;1.10;;
77423;SDS011;66494;47.172;14.678;2023-03-14T15:23:47;2.30;;;1.17;;
77423;SDS011;66494;47.172;14.678;2023-03-14T15:24:47;2.60;;;1.58;;
77423;SDS011;66494;47.172;14.678;2023-03-14T15:25:48;4.22;;;1.58;;
77423;SDS011;66494;47.172;14.678;2023-03-14T15:26:49;2.92;;;1.27;;
77423;SDS011;66494;47.172;14.678;2023-03-14T15:27:49;7.22;;;1.50;;
77423;SDS011;66494;47.172;14.678;2023-03-14T15:28:49;6.20;;;1.90;;
77423;SDS011;66494;47.172;14.678;2023-03-14T15:29:49;3.50;;;1.42;;
77423;SDS011;66494;47.172;14.678;2023-03-14T15:30:51;7.88;;;2.47;;
77423;SDS011;66494;47.172;14.678;2023-03-14T15:31:51;4.50;;;1.75;;
77423;SDS011;66494;47.172;14.678;2023-03-14T15:32:52;6.22;;;1.60;;
77423;SDS011;66494;47.172;14.678;2023-03-14T15:33:52;3.83;;;1.67;;
77423;SDS011;66494;47.172;14.678;2023-03-14T15:34:54;7.88;;;1.98;;
77423;SDS011;66494;47.172;14.678;2023-03-14T15:35:54;5.30;;;1.65;;
77423;SDS011;66494;47.172;14.678;2023-03-14T15:36:54;3.83;;;1.42;;
77423;SDS011;66494;47.172;14.678;2023-03-14T15:37:55;5.60;;;1.70;;
77423;SDS011;66494;47.172;14.678;2023-03-14T15:38:55;7.25;;;2.13;;
77423;SDS011;66494;47.172;14.678;2023-03-14T15:39:56;5.15;;;2.33;;
77423;SDS011;66494;47.172;14.678;2023-03-14T15:40:57;7.40;;;2.92;;
77423;SDS011;66494;47.172;14.678;2023-03-14T15:41:58;6.68;;;3.45;;
77423;SDS011;66494;47.172;14.678;2023-03-14T15:42:58;6.63;;;2.53;;
77423;SDS011;66494;47.172;14.678;2023-03-14T15:43:58;6.65;;;2.58;;
77423;SDS011;66494;47.172;14.678;2023-03-14T15:44:58;13.35;;;3.38;;
77423;SDS011;66494;47.172;14.678;2023-03-14T15:45:58;7.05;;;3.13;;
77423;SDS011;66494;47.172;14.678;2023-03-14T15:46:59;7.38;;;2.88;;
77423;SDS011;66494;47.172;14.678;2023-03-14T15:47:59;6.07;;;2.65;;
77423;SDS011;66494;47.172;14.678;2023-03-14T15:48:59;6.28;;;2.08;;
77423;SDS011;66494;47.172;14.678;2023-03-14T15:50:00;8.95;;;3.35;;
77423;SDS011;66494;47.172;14.678;2023-03-14T15:51:00;3.60;;;1.40;;
77423;SDS011;66494;47.172;14.678;2023-03-14T15:52:00;9.43;;;1.88;;
77423;SDS011;66494;47.172;14.678;2023-03-14T15:53:00;6.57;;;2.30;;
77423;SDS011;66494;47.172;14.678;2023-03-14T15:54:00;1.73;;;1.00;;
77423;SDS011;66494;47.172;14.678;2023-03-14T15:55:01;2.30;;;1.45;;
77423;SDS011;66494;47.172;14.678;2023-03-14T15:56:01;1.85;;;0.75;;
77423;SDS011;66494;47.172;14.678;2023-03-14T15:57:01;1.02;;;0.50;;
77423;SDS011;66494;47.172;14.678;2023-03-14T15:58:01;1.60;;;0.65;;
77423;SDS011;66494;47.172;14.678;2023-03-14T15:59:02;1.90;;;0.70;;
77423;SDS011;66494;47.172;14.678;2023-03-14T16:00:02;1.00;;;0.40;;
77423;SDS011;66494;47.172;14.678;2023-03-14T16:01:04;1.25;;;0.30;;
77423;SDS011;66494;47.172;14.678;2023-03-14T16:02:04;3.83;;;0.80;;
77423;SDS011;66494;47.172;14.678;2023-03-14T16:03:05;2.13;;;0.73;;
77423;SDS011;66494;47.172;14.678;2023-03-14T16:04:05;0.68;;;0.38;;
77423;SDS011;66494;47.172;14.678;2023-03-14T16:05:05;1.13;;;0.98;;
77423;SDS011;66494;47.172;14.678;2023-03-14T16:06:05;2.22;;;0.80;;
77423;SDS011;66494;47.172;14.678;2023-03-14T16:07:06;3.95;;;1.02;;
77423;SDS011;66494;47.172;14.678;2023-03-14T16:08:06;1.88;;;0.50;;
77423;SDS011;66494;47.172;14.678;2023-03-14T16:09:07;2.78;;;1.05;;
77423;SDS011;66494;47.172;14.678;2023-03-14T16:10:09;3.35;;;1.05;;
77423;SDS011;66494;47.172;14.678;2023-03-14T16:11:10;2.45;;;0.85;;
77423;SDS011;66494;47.172;14.678;2023-03-14T16:12:11;2.90;;;0.80;;
77423;SDS011;66494;47.172;14.678;2023-03-14T16:13:11;1.63;;;1.10;;
77423;SDS011;66494;47.172;14.678;2023-03-14T16:14:12;1.85;;;0.50;;
77423;SDS011;66494;47.172;14.678;2023-03-14T16:15:12;4.55;;;1.00;;
77423;SDS011;66494;47.172;14.678;2023-03-14T16:16:13;4.20;;;0.98;;
77423;SDS011;66494;47.172;14.678;2023-03-14T16:17:13;7.13;;;2.30;;
77423;SDS011;66494;47.172;14.678;2023-03-14T16:18:13;5.93;;;1.85;;
77423;SDS011;66494;47.172;14.678;2023-03-14T16:19:13;8.35;;;2.00;;
77423;SDS011;66494;47.172;14.678;2023-03-14T16:20:14;3.80;;;1.10;;
77423;SDS011;66494;47.172;14.678;2023-03-14T16:21:15;3.22;;;0.98;;
77423;SDS011;66494;47.172;14.678;2023-03-14T16:22:16;4.32;;;0.90;;
77423;SDS011;66494;47.172;14.678;2023-03-14T16:23:16;6.53;;;1.63;;
77423;SDS011;66494;47.172;14.678;2023-03-14T16:24:17;2.80;;;1.30;;
77423;SDS011;66494;47.172;14.678;2023-03-14T16:25:17;3.03;;;1.30;;
77423;SDS011;66494;47.172;14.678;2023-03-14T16:26:19;4.47;;;1.05;;
77423;SDS011;66494;47.172;14.678;2023-03-14T16:27:19;3.47;;;0.95;;
77423;SDS011;66494;47.172;14.678;2023-03-14T16:28:20;4.07;;;1.00;;
77423;SDS011;66494;47.172;14.678;2023-03-14T16:29:20;4.38;;;1.40;;
77423;SDS011;66494;47.172;14.678;2023-03-14T16:30:20;8.75;;;1.60;;
77423;SDS011;66494;47.172;14.678;2023-03-14T16:31:20;6.28;;;1.20;;
77423;SDS011;66494;47.172;14.678;2023-03-14T16:32:22;5.43;;;1.77;;
77423;SDS011;66494;47.172;14.678;2023-03-14T16:33:22;3.15;;;0.80;;
77423;SDS011;66494;47.172;14.678;2023-03-14T16:34:23;2.15;;;0.85;;
77423;SDS011;66494;47.172;14.678;2023-03-14T16:35:23;7.57;;;1.20;;
77423;SDS011;66494;47.172;14.678;2023-03-14T16:36:23;5.97;;;1.73;;
77423;SDS011;66494;47.172;14.678;2023-03-14T16:37:23;4.18;;;1.75;;
77423;SDS011;66494;47.172;14.678;2023-03-14T16:38:24;3.30;;;1.23;;
77423;SDS011;66494;47.172;14.678;2023-03-14T16:39:24;4.15;;;1.40;;
77423;SDS011;66494;47.172;14.678;2023-03-14T16:40:24;3.90;;;1.65;;
77423;SDS011;66494;47.172;14.678;2023-03-14T16:41:24;5.35;;;2.20;;
77423;SDS011;66494;47.172;14.678;2023-03-14T16:42:28;4.63;;;1.60;;
77423;SDS011;66494;47.172;14.678;2023-03-14T16:43:29;3.25;;;1.60;;
77423;SDS011;66494;47.172;14.678;2023-03-14T16:44:29;5.10;;;1.40;;
77423;SDS011;66494;47.172;14.678;2023-03-14T16:45:30;3.15;;;1.25;;
77423;SDS011;66494;47.172;14.678;2023-03-14T16:46:30;3.33;;;1.30;;
77423;SDS011;66494;47.172;14.678;2023-03-14T16:47:31;2.55;;;1.52;;
77423;SDS011;66494;47.172;14.678;2023-03-14T16:48:31;4.00;;;1.88;;
77423;SDS011;66494;47.172;14.678;2023-03-14T16:49:31;2.97;;;2.10;;
77423;SDS011;66494;47.172;14.678;2023-03-14T16:50:32;2.58;;;0.90;;
77423;SDS011;66494;47.172;14.678;2023-03-14T16:51:32;2.70;;;0.90;;
77423;SDS011;66494;47.172;14.678;2023-03-14T16:52:32;3.88;;;1.20;;
77423;SDS011;66494;47.172;14.678;2023-03-14T16:53:32;1.67;;;1.00;;
77423;SDS011;66494;47.172;14.678;2023-03-14T16:54:33;1.73;;;0.95;;
77423;SDS011;66494;47.172;14.678;2023-03-14T16:55:33;2.47;;;1.42;;
77423;SDS011;66494;47.172;14.678;2023-03-14T16:56:33;3.50;;;1.60;;
77423;SDS011;66494;47.172;14.678;2023-03-14T16:57:33;2.75;;;1.35;;
77423;SDS011;66494;47.172;14.678;2023-03-14T16:58:34;4.30;;;1.90;;
77423;SDS011;66494;47.172;14.678;2023-03-14T16:59:34;6.10;;;2.53;;
77423;SDS011;66494;47.172;14.678;2023-03-14T17:00:35;5.85;;;3.08;;
77423;SDS011;66494;47.172;14.678;2023-03-14T17:01:35;5.75;;;2.78;;
77423;SDS011;66494;47.172;14.678;2023-03-14T17:02:37;5.00;;;2.65;;
77423;SDS011;66494;47.172;14.678;2023-03-14T17:03:38;9.77;;;5.07;;
77423;SDS011;66494;47.172;14.678;2023-03-14T17:04:39;20.90;;;10.75;;
77423;SDS011;66494;47.172;14.678;2023-03-14T17:05:46;23.73;;;11.27;;
77423;SDS011;66494;47.172;14.678;2023-03-14T17:06:46;7.82;;;5.15;;
77423;SDS011;66494;47.172;14.678;2023-03-14T17:07:47;6.63;;;3.47;;
77423;SDS011;66494;47.172;14.678;2023-03-14T17:08:47;4.93;;;3.33;;
77423;SDS011;66494;47.172;14.678;2023-03-14T17:09:47;7.05;;;3.65;;
77423;SDS011;66494;47.172;14.678;2023-03-14T17:10:47;5.88;;;3.55;;
77423;SDS011;66494;47.172;14.678;2023-03-14T17:11:48;7.07;;;3.42;;
77423;SDS011;66494;47.172;14.678;2023-03-14T17:12:48;8.68;;;3.45;;
77423;SDS011;66494;47.172;14.678;2023-03-14T17:13:48;10.38;;;3.28;;
77423;SDS011;66494;47.172;14.678;2023-03-14T17:14:49;9.38;;;3.22;;
77423;SDS011;66494;47.172;14.678;2023-03-14T17:15:51;10.23;;;3.25;;
77423;SDS011;66494;47.172;14.678;2023-03-14T17:16:51;5.80;;;2.50;;
77423;SDS011;66494;47.172;14.678;2023-03-14T17:17:51;6.45;;;2.05;;
77423;SDS011;66494;47.172;14.678;2023-03-14T17:18:52;9.82;;;3.13;;
77423;SDS011;66494;47.172;14.678;2023-03-14T17:19:52;9.02;;;3.38;;
77423;SDS011;66494;47.172;14.678;2023-03-14T17:20:52;9.85;;;5.20;;
77423;SDS011;66494;47.172;14.678;2023-03-14T17:21:53;8.30;;;3.13;;
77423;SDS011;66494;47.172;14.678;2023-03-14T17:22:53;10.18;;;3.08;;
77423;SDS011;66494;47.172;14.678;2023-03-14T17:23:53;12.60;;;3.17;;
77423;SDS011;66494;47.172;14.678;2023-03-14T17:24:54;19.52;;;4.18;;
77423;SDS011;66494;47.172;14.678;2023-03-14T17:25:54;5.82;;;2.88;;
77423;SDS011;66494;47.172;14.678;2023-03-14T17:26:54;7.45;;;3.45;;
77423;SDS011;66494;47.172;14.678;2023-03-14T17:27:55;7.13;;;2.97;;
77423;SDS011;66494;47.172;14.678;2023-03-14T17:28:55;11.73;;;3.88;;
77423;SDS011;66494;47.172;14.678;2023-03-14T17:29:55;10.77;;;4.07;;
77423;SDS011;66494;47.172;14.678;2023-03-14T17:31:05;9.57;;;3.47;;
77423;SDS011;66494;47.172;14.678;2023-03-14T17:32:06;12.20;;;3.97;;
77423;SDS011;66494;47.172;14.678;2023-03-14T17:33:06;10.43;;;4.97;;
77423;SDS011;66494;47.172;14.678;2023-03-14T17:34:07;11.27;;;3.95;;
77423;SDS011;66494;47.172;14.678;2023-03-14T17:35:07;6.22;;;2.40;;
77423;SDS011;66494;47.172;14.678;2023-03-14T17:36:07;4.13;;;2.00;;
77423;SDS011;66494;47.172;14.678;2023-03-14T17:37:08;8.07;;;3.42;;
77423;SDS011;66494;47.172;14.678;2023-03-14T17:38:08;9.48;;;1.85;;
77423;SDS011;66494;47.172;14.678;2023-03-14T17:39:09;8.63;;;2.10;;
77423;SDS011;66494;47.172;14.678;2023-03-14T17:40:09;7.53;;;2.42;;
77423;SDS011;66494;47.172;14.678;2023-03-14T17:41:10;5.15;;;2.40;;
77423;SDS011;66494;47.172;14.678;2023-03-14T17:42:11;8.00;;;3.67;;
77423;SDS011;66494;47.172;14.678;2023-03-14T17:43:11;6.75;;;3.03;;
77423;SDS011;66494;47.172;14.678;2023-03-14T17:44:11;5.97;;;2.55;;
77423;SDS011;66494;47.172;14.678;2023-03-14T17:45:12;5.68;;;2.45;;
77423;SDS011;66494;47.172;14.678;2023-03-14T17:46:12;8.90;;;3.70;;
77423;SDS011;66494;47.172;14.678;2023-03-14T17:47:16;6.15;;;3.13;;
77423;SDS011;66494;47.172;14.678;2023-03-14T17:48:16;13.90;;;4.60;;
77423;SDS011;66494;47.172;14.678;2023-03-14T17:49:17;7.47;;;3.85;;
77423;SDS011;66494;47.172;14.678;2023-03-14T17:50:17;9.77;;;3.85;;
77423;SDS011;66494;47.172;14.678;2023-03-14T17:51:17;8.85;;;3.53;;
77423;SDS011;66494;47.172;14.678;2023-03-14T17:52:17;9.48;;;2.97;;
77423;SDS011;66494;47.172;14.678;2023-03-14T17:53:18;8.30;;;2.88;;
77423;SDS011;66494;47.172;14.678;2023-03-14T17:54:18;6.32;;;3.00;;
77423;SDS011;66494;47.172;14.678;2023-03-14T17:55:18;8.88;;;3.33;;
77423;SDS011;66494;47.172;14.678;2023-03-14T17:56:18;6.50;;;3.00;;
77423;SDS011;66494;47.172;14.678;2023-03-14T17:57:19;7.78;;;4.18;;
77423;SDS011;66494;47.172;14.678;2023-03-14T17:58:19;10.18;;;4.32;;
77423;SDS011;66494;47.172;14.678;2023-03-14T17:59:19;18.48;;;7.35;;
77423;SDS011;66494;47.172;14.678;2023-03-14T18:00:19;14.27;;;5.75;;
77423;SDS011;66494;47.172;14.678;2023-03-14T18:01:22;19.73;;;10.65;;
77423;SDS011;66494;47.172;14.678;2023-03-14T18:02:22;20.75;;;10.60;;
77423;SDS011;66494;47.172;14.678;2023-03-14T18:03:23;115.38;;;65.88;;
77423;SDS011;66494;47.172;14.678;2023-03-14T18:04:23;42.35;;;27.63;;
77423;SDS011;66494;47.172;14.678;2023-03-14T18:05:23;53.13;;;32.63;;
77423;SDS011;66494;47.172;14.678;2023-03-14T18:06:24;99.60;;;58.40;;
77423;SDS011;66494;47.172;14.678;2023-03-14T18:07:26;176.77;;;111.07;;
77423;SDS011;66494;47.172;14.678;2023-03-14T18:08:27;156.23;;;96.57;;
77423;SDS011;66494;47.172;14.678;2023-03-14T18:09:27;73.97;;;46.92;;
77423;SDS011;66494;47.172;14.678;2023-03-14T18:10:27;128.40;;;76.95;;
77423;SDS011;66494;47.172;14.678;2023-03-14T18:11:27;38.45;;;24.10;;
77423;SDS011;66494;47.172;14.678;2023-03-14T18:12:28;37.97;;;20.05;;
77423;SDS011;66494;47.172;14.678;2023-03-14T18:13:28;29.23;;;15.63;;
77423;SDS011;66494;47.172;14.678;2023-03-14T18:14:28;17.13;;;8.93;;
77423;SDS011;66494;47.172;14.678;2023-03-14T18:15:28;11.90;;;5.55;;
77423;SDS011;66494;47.172;14.678;2023-03-14T18:16:29;10.45;;;4.72;;
77423;SDS011;66494;47.172;14.678;2023-03-14T18:17:30;10.55;;;4.60;;
77423;SDS011;66494;47.172;14.678;2023-03-14T18:18:30;7.65;;;4.25;;
77423;SDS011;66494;47.172;14.678;2023-03-14T18:19:31;8.63;;;3.53;;
77423;SDS011;66494;47.172;14.678;2023-03-14T18:20:31;9.40;;;3.15;;
77423;SDS011;66494;47.172;14.678;2023-03-14T18:21:31;9.85;;;4.03;;
77423;SDS011;66494;47.172;14.678;2023-03-14T18:22:32;10.00;;;3.47;;
77423;SDS011;66494;47.172;14.678;2023-03-14T18:23:33;6.85;;;3.22;;
77423;SDS011;66494;47.172;14.678;2023-03-14T18:24:33;4.40;;;2.08;;
77423;SDS011;66494;47.172;14.678;2023-03-14T18:25:33;4.57;;;1.83;;
77423;SDS011;66494;47.172;14.678;2023-03-14T18:26:34;5.03;;;2.10;;
77423;SDS011;66494;47.172;14.678;2023-03-14T18:27:34;9.38;;;3.85;;
77423;SDS011;66494;47.172;14.678;2023-03-14T18:28:35;12.55;;;4.95;;
77423;SDS011;66494;47.172;14.678;2023-03-14T18:29:35;15.40;;;5.45;;
77423;SDS011;66494;47.172;14.678;2023-03-14T18:30:36;11.55;;;6.10;;
77423;SDS011;66494;47.172;14.678;2023-03-14T18:31:36;12.63;;;5.95;;
77423;SDS011;66494;47.172;14.678;2023-03-14T18:32:36;11.55;;;4.50;;
77423;SDS011;66494;47.172;14.678;2023-03-14T18:33:37;7.75;;;4.03;;
77423;SDS011;66494;47.172;14.678;2023-03-14T18:34:39;10.10;;;4.05;;
77423;SDS011;66494;47.172;14.678;2023-03-14T18:35:41;7.13;;;2.90;;
77423;SDS011;66494;47.172;14.678;2023-03-14T18:36:42;4.68;;;2.97;;
77423;SDS011;66494;47.172;14.678;2023-03-14T18:37:42;5.97;;;2.75;;
77423;SDS011;66494;47.172;14.678;2023-03-14T18:38:42;6.45;;;2.47;;
77423;SDS011;66494;47.172;14.678;2023-03-14T18:39:47;6.35;;;2.13;;
77423;SDS011;66494;47.172;14.678;2023-03-14T18:40:47;5.00;;;2.20;;
77423;SDS011;66494;47.172;14.678;2023-03-14T18:41:47;3.60;;;2.58;;
77423;SDS011;66494;47.172;14.678;2023-03-14T18:42:48;3.40;;;1.92;;
77423;SDS011;66494;47.172;14.678;2023-03-14T18:43:48;7.28;;;2.60;;
77423;SDS011;66494;47.172;14.678;2023-03-14T18:44:48;4.32;;;1.95;;
77423;SDS011;66494;47.172;14.678;2023-03-14T18:45:49;6.20;;;2.75;;
77423;SDS011;66494;47.172;14.678;2023-03-14T18:46:49;8.13;;;4.55;;
77423;SDS011;66494;47.172;14.678;2023-03-14T18:47:49;9.43;;;4.93;;
77423;SDS011;66494;47.172;14.678;2023-03-14T18:48:49;9.40;;;4.30;;
77423;SDS011;66494;47.172;14.678;2023-03-14T18:49:55;8.88;;;4.47;;
77423;SDS011;66494;47.172;14.678;2023-03-14T18:50:58;9.73;;;4.47;;
77423;SDS011;66494;47.172;14.678;2023-03-14T18:51:58;8.48;;;4.43;;
77423;SDS011;66494;47.172;14.678;2023-03-14T18:52:59;8.90;;;4.32;;
77423;SDS011;66494;47.172;14.678;2023-03-14T18:54:00;9.70;;;5.10;;
77423;SDS011;66494;47.172;14.678;2023-03-14T18:55:00;8.82;;;4.72;;
77423;SDS011;66494;47.172;14.678;2023-03-14T18:56:01;7.40;;;4.57;;
77423;SDS011;66494;47.172;14.678;2023-03-14T18:57:01;7.85;;;4.20;;
77423;SDS011;66494;47.172;14.678;2023-03-14T18:58:01;8.40;;;3.92;;
77423;SDS011;66494;47.172;14.678;2023-03-14T18:59:01;10.15;;;4.97;;
77423;SDS011;66494;47.172;14.678;2023-03-14T19:00:02;7.85;;;4.20;;
77423;SDS011;66494;47.172;14.678;2023-03-14T19:01:04;9.23;;;4.85;;
77423;SDS011;66494;47.172;14.678;2023-03-14T19:03:05;7.63;;;3.77;;
77423;SDS011;66494;47.172;14.678;2023-03-14T19:04:05;5.63;;;2.83;;
77423;SDS011;66494;47.172;14.678;2023-03-14T19:05:06;9.50;;;4.20;;
77423;SDS011;66494;47.172;14.678;2023-03-14T19:06:08;9.65;;;5.15;;
77423;SDS011;66494;47.172;14.678;2023-03-14T19:07:09;11.63;;;5.38;;
77423;SDS011;66494;47.172;14.678;2023-03-14T19:08:09;14.93;;;7.10;;
77423;SDS011;66494;47.172;14.678;2023-03-14T19:09:14;10.63;;;6.28;;
77423;SDS011;66494;47.172;14.678;2023-03-14T19:11:14;6.83;;;4.03;;
77423;SDS011;66494;47.172;14.678;2023-03-14T19:12:15;8.32;;;3.63;;
77423;SDS011;66494;47.172;14.678;2023-03-14T19:13:16;7.65;;;3.80;;
77423;SDS011;66494;47.172;14.678;2023-03-14T19:14:16;5.30;;;3.25;;
77423;SDS011;66494;47.172;14.678;2023-03-14T19:15:19;4.63;;;2.45;;
77423;SDS011;66494;47.172;14.678;2023-03-14T19:16:19;5.43;;;2.20;;
77423;SDS011;66494;47.172;14.678;2023-03-14T19:17:21;6.40;;;1.92;;
77423;SDS011;66494;47.172;14.678;2023-03-14T19:18:21;5.07;;;2.13;;
77423;SDS011;66494;47.172;14.678;2023-03-14T19:19:21;5.35;;;2.78;;
77423;SDS011;66494;47.172;14.678;2023-03-14T19:20:22;6.57;;;3.70;;
77423;SDS011;66494;47.172;14.678;2023-03-14T19:21:27;11.70;;;5.78;;
77423;SDS011;66494;47.172;14.678;2023-03-14T19:22:28;13.25;;;6.93;;
77423;SDS011;66494;47.172;14.678;2023-03-14T19:23:28;8.82;;;6.68;;
77423;SDS011;66494;47.172;14.678;2023-03-14T19:24:28;10.00;;;5.72;;
77423;SDS011;66494;47.172;14.678;2023-03-14T19:25:28;10.88;;;6.40;;
77423;SDS011;66494;47.172;14.678;2023-03-14T19:26:29;16.73;;;7.30;;
77423;SDS011;66494;47.172;14.678;2023-03-14T19:27:31;9.25;;;4.80;;
77423;SDS011;66494;47.172;14.678;2023-03-14T19:28:31;11.63;;;5.60;;
77423;SDS011;66494;47.172;14.678;2023-03-14T19:29:32;10.38;;;5.43;;
77423;SDS011;66494;47.172;14.678;2023-03-14T19:30:38;5.70;;;3.15;;
77423;SDS011;66494;47.172;14.678;2023-03-14T19:31:38;8.13;;;4.82;;
77423;SDS011;66494;47.172;14.678;2023-03-14T19:32:39;9.40;;;4.63;;
77423;SDS011;66494;47.172;14.678;2023-03-14T19:33:40;9.05;;;4.10;;
77423;SDS011;66494;47.172;14.678;2023-03-14T19:34:41;7.93;;;4.20;;
77423;SDS011;66494;47.172;14.678;2023-03-14T19:35:43;7.85;;;3.83;;
77423;SDS011;66494;47.172;14.678;2023-03-14T19:36:43;9.45;;;3.75;;
77423;SDS011;66494;47.172;14.678;2023-03-14T19:37:44;6.65;;;2.90;;
77423;SDS011;66494;47.172;14.678;2023-03-14T19:38:44;19.75;;;12.23;;
77423;SDS011;66494;47.172;14.678;2023-03-14T19:39:44;29.02;;;17.63;;
77423;SDS011;66494;47.172;14.678;2023-03-14T19:41:46;50.50;;;29.90;;
77423;SDS011;66494;47.172;14.678;2023-03-14T19:42:46;39.08;;;21.95;;
77423;SDS011;66494;47.172;14.678;2023-03-14T19:43:47;12.85;;;8.25;;
77423;SDS011;66494;47.172;14.678;2023-03-14T19:44:47;10.15;;;4.68;;
77423;SDS011;66494;47.172;14.678;2023-03-14T19:45:47;9.82;;;4.88;;
77423;SDS011;66494;47.172;14.678;2023-03-14T19:46:47;7.25;;;3.90;;
77423;SDS011;66494;47.172;14.678;2023-03-14T19:47:47;7.28;;;4.50;;
77423;SDS011;66494;47.172;14.678;2023-03-14T19:48:48;7.93;;;3.22;;
77423;SDS011;66494;47.172;14.678;2023-03-14T19:49:49;8.68;;;4.30;;
77423;SDS011;66494;47.172;14.678;2023-03-14T19:50:49;8.20;;;5.25;;
77423;SDS011;66494;47.172;14.678;2023-03-14T19:51:50;10.80;;;5.65;;
77423;SDS011;66494;47.172;14.678;2023-03-14T19:52:51;7.63;;;5.13;;
77423;SDS011;66494;47.172;14.678;2023-03-14T19:53:52;9.20;;;4.85;;
77423;SDS011;66494;47.172;14.678;2023-03-14T19:54:52;21.88;;;9.98;;
77423;SDS011;66494;47.172;14.678;2023-03-14T19:56:53;13.73;;;7.50;;
77423;SDS011;66494;47.172;14.678;2023-03-14T19:57:54;17.70;;;8.32;;
77423;SDS011;66494;47.172;14.678;2023-03-14T19:58:54;17.52;;;9.07;;
77423;SDS011;66494;47.172;14.678;2023-03-14T19:59:54;18.48;;;8.18;;
77423;SDS011;66494;47.172;14.678;2023-03-14T20:00:55;16.73;;;6.95;;
77423;SDS011;66494;47.172;14.678;2023-03-14T20:01:56;11.50;;;5.07;;
77423;SDS011;66494;47.172;14.678;2023-03-14T20:03:57;14.13;;;3.97;;
77423;SDS011;66494;47.172;14.678;2023-03-14T20:04:57;9.82;;;3.88;;
77423;SDS011;66494;47.172;14.678;2023-03-14T20:06:04;8.52;;;3.60;;
77423;SDS011;66494;47.172;14.678;2023-03-14T20:07:05;7.18;;;2.65;;
77423;SDS011;66494;47.172;14.678;2023-03-14T20:08:05;9.43;;;3.65;;
77423;SDS011;66494;47.172;14.678;2023-03-14T20:09:05;3.38;;;0.98;;
77423;SDS011;66494;47.172;14.678;2023-03-14T20:10:07;0.98;;;0.30;;
77423;SDS011;66494;47.172;14.678;2023-03-14T20:12:08;0.87;;;0.30;;
77423;SDS011;66494;47.172;14.678;2023-03-14T20:13:08;0.43;;;0.13;;
77423;SDS011;66494;47.172;14.678;2023-03-14T20:14:09;0.40;;;0.10;;
77423;SDS011;66494;47.172;14.678;2023-03-14T20:15:10;0.00;;;0.00;;
77423;SDS011;66494;47.172;14.678;2023-03-14T20:16:11;0.50;;;0.10;;
77423;SDS011;66494;47.172;14.678;2023-03-14T20:17:12;0.30;;;0.08;;
77423;SDS011;66494;47.172;14.678;2023-03-14T20:18:13;0.85;;;0.20;;
77423;SDS011;66494;47.172;14.678;2023-03-14T20:19:13;0.00;;;0.00;;
77423;SDS011;66494;47.172;14.678;2023-03-14T20:21:14;0.30;;;0.00;;
77423;SDS011;66494;47.172;14.678;2023-03-14T20:22:14;0.22;;;0.17;;
77423;SDS011;66494;47.172;14.678;2023-03-14T20:23:14;1.08;;;0.55;;
77423;SDS011;66494;47.172;14.678;2023-03-14T20:24:15;5.57;;;3.33;;
77423;SDS011;66494;47.172;14.678;2023-03-14T20:25:16;0.98;;;0.50;;
77423;SDS011;66494;47.172;14.678;2023-03-14T20:26:17;0.82;;;0.50;;
77423;SDS011;66494;47.172;14.678;2023-03-14T20:27:17;0.45;;;0.10;;
77423;SDS011;66494;47.172;14.678;2023-03-14T20:28:18;0.70;;;0.45;;
77423;SDS011;66494;47.172;14.678;2023-03-14T20:29:18;1.65;;;0.40;;
77423;SDS011;66494;47.172;14.678;2023-03-14T20:30:19;1.10;;;0.40;;
77423;SDS011;66494;47.172;14.678;2023-03-14T20:31:20;0.63;;;0.20;;
77423;SDS011;66494;47.172;14.678;2023-03-14T20:32:20;0.50;;;0.10;;
77423;SDS011;66494;47.172;14.678;2023-03-14T20:33:21;0.75;;;0.17;;
77423;SDS011;66494;47.172;14.678;2023-03-14T20:34:21;3.40;;;0.68;;
77423;SDS011;66494;47.172;14.678;2023-03-14T20:35:21;3.60;;;0.82;;
77423;SDS011;66494;47.172;14.678;2023-03-14T20:36:24;0.95;;;0.40;;
77423;SDS011;66494;47.172;14.678;2023-03-14T20:37:25;1.70;;;0.73;;
77423;SDS011;66494;47.172;14.678;2023-03-14T20:38:25;2.20;;;0.82;;
77423;SDS011;66494;47.172;14.678;2023-03-14T20:39:26;1.23;;;0.60;;
77423;SDS011;66494;47.172;14.678;2023-03-14T20:40:26;0.98;;;0.40;;
77423;SDS011;66494;47.172;14.678;2023-03-14T20:41:29;0.30;;;0.10;;
77423;SDS011;66494;47.172;14.678;2023-03-14T20:42:29;0.50;;;0.20;;
77423;SDS011;66494;47.172;14.678;2023-03-14T20:43:30;6.30;;;0.20;;
77423;SDS011;66494;47.172;14.678;2023-03-14T20:44:31;0.88;;;0.15;;
77423;SDS011;66494;47.172;14.678;2023-03-14T20:45:31;0.55;;;0.25;;
77423;SDS011;66494;47.172;14.678;2023-03-14T20:46:33;1.15;;;0.30;;
77423;SDS011;66494;47.172;14.678;2023-03-14T20:47:34;1.40;;;0.40;;
77423;SDS011;66494;47.172;14.678;2023-03-14T20:48:34;1.80;;;0.10;;
77423;SDS011;66494;47.172;14.678;2023-03-14T20:49:34;0.15;;;0.10;;
77423;SDS011;66494;47.172;14.678;2023-03-14T20:50:35;0.57;;;0.10;;
77423;SDS011;66494;47.172;14.678;2023-03-14T20:51:35;0.35;;;0.17;;
77423;SDS011;66494;47.172;14.678;2023-03-14T20:52:35;0.52;;;0.25;;
77423;SDS011;66494;47.172;14.678;2023-03-14T20:53:35;0.15;;;0.10;;
77423;SDS011;66494;47.172;14.678;2023-03-14T20:54:36;0.35;;;0.10;;
77423;SDS011;66494;47.172;14.678;2023-03-14T20:55:36;1.70;;;0.17;;
77423;SDS011;66494;47.172;14.678;2023-03-14T20:56:36;2.85;;;0.10;;
77423;SDS011;66494;47.172;14.678;2023-03-14T20:57:37;0.28;;;0.10;;
77423;SDS011;66494;47.172;14.678;2023-03-14T20:58:37;0.43;;;0.03;;
77423;SDS011;66494;47.172;14.678;2023-03-14T20:59:38;0.10;;;0.05;;
77423;SDS011;66494;47.172;14.678;2023-03-14T21:00:45;0.70;;;0.22;;
77423;SDS011;66494;47.172;14.678;2023-03-14T21:01:46;0.45;;;0.10;;
77423;SDS011;66494;47.172;14.678;2023-03-14T21:02:48;0.88;;;0.30;;
77423;SDS011;66494;47.172;14.678;2023-03-14T21:03:48;1.20;;;0.10;;
77423;SDS011;66494;47.172;14.678;2023-03-14T21:04:48;0.55;;;0.25;;